sensor_id;sensor_type;location;lat;lon;timestamp;P1;durP1;ratioP1;P2;durP2;ratioP2
21010;SDS011;10663;42.714;23.274;2023-05-10T00:00:26;6.15;;;5.55;;
21010;SDS011;10663;42.714;23.274;2023-05-10T00:01:57;6.13;;;5.30;;
21010;SDS011;10663;42.714;23.274;2023-05-10T00:03:28;6.22;;;5.30;;
21010;SDS011;10663;42.714;23.274;2023-05-10T00:04:59;7.20;;;5.57;;
21010;SDS011;10663;42.714;23.274;2023-05-10T00:06:30;6.00;;;5.43;;
21010;SDS011;10663;42.714;23.274;2023-05-10T00:08:01;6.43;;;5.83;;
21010;SDS011;10663;42.714;23.274;2023-05-10T00:09:32;6.00;;;5.40;;
21010;SDS011;10663;42.714;23.274;2023-05-10T00:11:03;6.90;;;6.20;;
21010;SDS011;10663;42.714;23.274;2023-05-10T00:12:34;6.93;;;6.20;;
21010;SDS011;10663;42.714;23.274;2023-05-10T00:14:05;6.93;;;6.22;;
21010;SDS011;10663;42.714;23.274;2023-05-10T00:15:36;7.10;;;6.40;;
21010;SDS011;10663;42.714;23.274;2023-05-10T00:17:07;7.65;;;6.95;;
21010;SDS011;10663;42.714;23.274;2023-05-10T00:18:37;7.80;;;7.00;;
21010;SDS011;10663;42.714;23.274;2023-05-10T00:20:09;8.50;;;7.32;;
21010;SDS011;10663;42.714;23.274;2023-05-10T00:21:40;10.23;;;9.23;;
21010;SDS011;10663;42.714;23.274;2023-05-10T00:23:11;10.93;;;9.18;;
21010;SDS011;10663;42.714;23.274;2023-05-10T00:24:42;9.90;;;8.60;;
21010;SDS011;10663;42.714;23.274;2023-05-10T00:26:13;11.05;;;9.50;;
21010;SDS011;10663;42.714;23.274;2023-05-10T00:27:49;10.27;;;9.10;;
21010;SDS011;10663;42.714;23.274;2023-05-10T00:29:20;11.68;;;10.07;;
21010;SDS011;10663;42.714;23.274;2023-05-10T00:30:51;11.20;;;10.00;;
21010;SDS011;10663;42.714;23.274;2023-05-10T00:32:22;11.52;;;10.43;;
21010;SDS011;10663;42.714;23.274;2023-05-10T00:33:53;10.85;;;9.75;;
21010;SDS011;10663;42.714;23.274;2023-05-10T00:35:25;12.93;;;10.40;;
21010;SDS011;10663;42.714;23.274;2023-05-10T00:36:56;11.27;;;10.10;;
21010;SDS011;10663;42.714;23.274;2023-05-10T00:38:27;12.32;;;10.82;;
21010;SDS011;10663;42.714;23.274;2023-05-10T00:39:58;11.85;;;10.60;;
21010;SDS011;10663;42.714;23.274;2023-05-10T00:41:29;11.40;;;10.30;;
21010;SDS011;10663;42.714;23.274;2023-05-10T00:43:03;13.53;;;10.50;;
21010;SDS011;10663;42.714;23.274;2023-05-10T00:44:34;12.65;;;11.45;;
21010;SDS011;10663;42.714;23.274;2023-05-10T00:46:05;12.80;;;11.57;;
21010;SDS011;10663;42.714;23.274;2023-05-10T00:47:36;11.90;;;10.68;;
21010;SDS011;10663;42.714;23.274;2023-05-10T00:49:08;13.02;;;10.88;;
21010;SDS011;10663;42.714;23.274;2023-05-10T00:50:38;13.18;;;10.88;;
21010;SDS011;10663;42.714;23.274;2023-05-10T00:52:10;15.13;;;11.93;;
21010;SDS011;10663;42.714;23.274;2023-05-10T00:53:41;12.32;;;11.00;;
21010;SDS011;10663;42.714;23.274;2023-05-10T00:55:13;12.82;;;11.25;;
21010;SDS011;10663;42.714;23.274;2023-05-10T00:56:44;13.10;;;11.65;;
21010;SDS011;10663;42.714;23.274;2023-05-10T00:58:19;12.70;;;11.40;;
21010;SDS011;10663;42.714;23.274;2023-05-10T00:59:49;13.02;;;11.63;;
21010;SDS011;10663;42.714;23.274;2023-05-10T01:01:21;13.18;;;11.70;;
21010;SDS011;10663;42.714;23.274;2023-05-10T01:02:53;12.73;;;11.48;;
21010;SDS011;10663;42.714;23.274;2023-05-10T01:04:24;13.45;;;12.05;;
21010;SDS011;10663;42.714;23.274;2023-05-10T01:05:55;14.07;;;12.52;;
21010;SDS011;10663;42.714;23.274;2023-05-10T01:07:28;14.07;;;12.40;;
21010;SDS011;10663;42.714;23.274;2023-05-10T01:08:59;14.02;;;12.60;;
21010;SDS011;10663;42.714;23.274;2023-05-10T01:10:30;14.10;;;12.70;;
21010;SDS011;10663;42.714;23.274;2023-05-10T01:12:02;15.07;;;13.13;;
21010;SDS011;10663;42.714;23.274;2023-05-10T01:13:37;14.38;;;12.88;;
21010;SDS011;10663;42.714;23.274;2023-05-10T01:15:09;13.95;;;12.45;;
21010;SDS011;10663;42.714;23.274;2023-05-10T01:16:42;16.50;;;13.10;;
21010;SDS011;10663;42.714;23.274;2023-05-10T01:18:15;13.95;;;12.55;;
21010;SDS011;10663;42.714;23.274;2023-05-10T01:19:50;13.50;;;12.10;;
21010;SDS011;10663;42.714;23.274;2023-05-10T01:21:29;15.10;;;12.83;;
21010;SDS011;10663;42.714;23.274;2023-05-10T01:23:14;14.13;;;12.73;;
21010;SDS011;10663;42.714;23.274;2023-05-10T01:28:54;13.73;;;12.13;;
21010;SDS011;10663;42.714;23.274;2023-05-10T01:36:49;12.25;;;11.15;;
21010;SDS011;10663;42.714;23.274;2023-05-10T01:40:39;13.13;;;11.77;;
21010;SDS011;10663;42.714;23.274;2023-05-10T01:42:23;11.32;;;10.23;;
21010;SDS011;10663;42.714;23.274;2023-05-10T01:46:00;11.52;;;10.43;;
21010;SDS011;10663;42.714;23.274;2023-05-10T01:47:43;11.23;;;10.23;;
21010;SDS011;10663;42.714;23.274;2023-05-10T01:49:23;11.37;;;10.27;;
21010;SDS011;10663;42.714;23.274;2023-05-10T01:50:57;10.70;;;9.70;;
21010;SDS011;10663;42.714;23.274;2023-05-10T01:52:36;10.75;;;9.68;;
21010;SDS011;10663;42.714;23.274;2023-05-10T01:54:09;10.25;;;9.27;;
21010;SDS011;10663;42.714;23.274;2023-05-10T01:55:45;11.18;;;10.00;;
21010;SDS011;10663;42.714;23.274;2023-05-10T01:57:18;10.38;;;9.38;;
21010;SDS011;10663;42.714;23.274;2023-05-10T01:58:52;10.02;;;9.02;;
21010;SDS011;10663;42.714;23.274;2023-05-10T02:00:24;10.68;;;9.60;;
21010;SDS011;10663;42.714;23.274;2023-05-10T02:01:57;9.70;;;8.80;;
21010;SDS011;10663;42.714;23.274;2023-05-10T02:03:30;9.90;;;8.90;;
21010;SDS011;10663;42.714;23.274;2023-05-10T02:05:03;10.00;;;9.00;;
21010;SDS011;10663;42.714;23.274;2023-05-10T02:06:36;9.43;;;8.55;;
21010;SDS011;10663;42.714;23.274;2023-05-10T02:08:10;10.27;;;9.30;;
21010;SDS011;10663;42.714;23.274;2023-05-10T02:09:43;9.52;;;8.63;;
21010;SDS011;10663;42.714;23.274;2023-05-10T02:11:18;10.50;;;9.40;;
21010;SDS011;10663;42.714;23.274;2023-05-10T02:12:51;9.52;;;8.63;;
21010;SDS011;10663;42.714;23.274;2023-05-10T02:14:24;9.88;;;8.88;;
21010;SDS011;10663;42.714;23.274;2023-05-10T02:15:57;9.35;;;8.45;;
21010;SDS011;10663;42.714;23.274;2023-05-10T02:17:30;9.07;;;8.25;;
21010;SDS011;10663;42.714;23.274;2023-05-10T02:19:02;9.90;;;8.90;;
21010;SDS011;10663;42.714;23.274;2023-05-10T02:20:34;10.60;;;8.82;;
21010;SDS011;10663;42.714;23.274;2023-05-10T02:22:06;9.70;;;8.27;;
21010;SDS011;10663;42.714;23.274;2023-05-10T02:23:39;9.20;;;8.30;;
21010;SDS011;10663;42.714;23.274;2023-05-10T02:25:11;9.40;;;7.97;;
21010;SDS011;10663;42.714;23.274;2023-05-10T02:26:44;8.98;;;8.10;;
21010;SDS011;10663;42.714;23.274;2023-05-10T02:28:18;9.23;;;8.32;;
21010;SDS011;10663;42.714;23.274;2023-05-10T02:29:51;8.50;;;7.70;;
21010;SDS011;10663;42.714;23.274;2023-05-10T02:31:23;7.93;;;7.23;;
21010;SDS011;10663;42.714;23.274;2023-05-10T02:32:55;8.00;;;7.30;;
21010;SDS011;10663;42.714;23.274;2023-05-10T02:34:28;7.68;;;6.90;;
21010;SDS011;10663;42.714;23.274;2023-05-10T02:36:00;7.25;;;6.55;;
21010;SDS011;10663;42.714;23.274;2023-05-10T02:37:34;7.70;;;7.00;;
21010;SDS011;10663;42.714;23.274;2023-05-10T02:39:07;7.80;;;6.72;;
21010;SDS011;10663;42.714;23.274;2023-05-10T02:40:43;7.25;;;6.55;;
21010;SDS011;10663;42.714;23.274;2023-05-10T02:42:18;7.40;;;6.60;;
21010;SDS011;10663;42.714;23.274;2023-05-10T02:43:51;7.68;;;6.88;;
21010;SDS011;10663;42.714;23.274;2023-05-10T02:45:29;7.15;;;6.43;;
21010;SDS011;10663;42.714;23.274;2023-05-10T02:47:01;7.40;;;6.70;;
21010;SDS011;10663;42.714;23.274;2023-05-10T02:48:33;7.78;;;6.88;;
21010;SDS011;10663;42.714;23.274;2023-05-10T02:50:04;6.53;;;5.93;;
21010;SDS011;10663;42.714;23.274;2023-05-10T02:51:37;7.85;;;6.65;;
21010;SDS011;10663;42.714;23.274;2023-05-10T02:53:18;7.70;;;6.97;;
21010;SDS011;10663;42.714;23.274;2023-05-10T02:54:58;7.10;;;6.10;;
21010;SDS011;10663;42.714;23.274;2023-05-10T02:56:34;7.43;;;6.63;;
21010;SDS011;10663;42.714;23.274;2023-05-10T02:58:06;8.48;;;6.30;;
21010;SDS011;10663;42.714;23.274;2023-05-10T02:59:37;7.55;;;6.35;;
21010;SDS011;10663;42.714;23.274;2023-05-10T03:01:09;7.28;;;6.18;;
21010;SDS011;10663;42.714;23.274;2023-05-10T03:02:40;8.15;;;6.63;;
21010;SDS011;10663;42.714;23.274;2023-05-10T03:04:12;7.22;;;6.20;;
21010;SDS011;10663;42.714;23.274;2023-05-10T03:05:43;7.72;;;6.32;;
21010;SDS011;10663;42.714;23.274;2023-05-10T03:07:14;8.50;;;6.53;;
21010;SDS011;10663;42.714;23.274;2023-05-10T03:08:45;7.37;;;6.37;;
21010;SDS011;10663;42.714;23.274;2023-05-10T03:10:17;6.40;;;5.70;;
21010;SDS011;10663;42.714;23.274;2023-05-10T03:13:29;7.05;;;6.35;;
21010;SDS011;10663;42.714;23.274;2023-05-10T03:16:44;7.78;;;6.28;;
21010;SDS011;10663;42.714;23.274;2023-05-10T03:19:54;6.97;;;6.28;;
21010;SDS011;10663;42.714;23.274;2023-05-10T03:21:28;8.30;;;6.43;;
21010;SDS011;10663;42.714;23.274;2023-05-10T03:23:02;9.30;;;6.82;;
21010;SDS011;10663;42.714;23.274;2023-05-10T03:24:39;8.32;;;6.75;;
21010;SDS011;10663;42.714;23.274;2023-05-10T03:26:17;8.20;;;7.00;;
21010;SDS011;10663;42.714;23.274;2023-05-10T03:28:12;7.82;;;6.68;;
21010;SDS011;10663;42.714;23.274;2023-05-10T03:29:46;8.48;;;6.72;;
21010;SDS011;10663;42.714;23.274;2023-05-10T03:31:18;7.80;;;6.68;;
21010;SDS011;10663;42.714;23.274;2023-05-10T03:32:49;9.20;;;7.05;;
21010;SDS011;10663;42.714;23.274;2023-05-10T03:34:24;7.85;;;6.80;;
21010;SDS011;10663;42.714;23.274;2023-05-10T03:35:56;7.78;;;7.03;;
21010;SDS011;10663;42.714;23.274;2023-05-10T03:37:27;8.45;;;7.40;;
21010;SDS011;10663;42.714;23.274;2023-05-10T03:38:58;7.87;;;7.07;;
21010;SDS011;10663;42.714;23.274;2023-05-10T03:40:29;8.03;;;7.00;;
21010;SDS011;10663;42.714;23.274;2023-05-10T03:42:02;9.20;;;7.40;;
21010;SDS011;10663;42.714;23.274;2023-05-10T03:43:34;9.30;;;7.22;;
21010;SDS011;10663;42.714;23.274;2023-05-10T03:45:06;9.48;;;7.28;;
21010;SDS011;10663;42.714;23.274;2023-05-10T03:46:37;8.77;;;6.80;;
21010;SDS011;10663;42.714;23.274;2023-05-10T03:48:08;9.50;;;7.70;;
21010;SDS011;10663;42.714;23.274;2023-05-10T03:49:39;10.35;;;7.75;;
21010;SDS011;10663;42.714;23.274;2023-05-10T03:51:10;12.27;;;7.82;;
21010;SDS011;10663;42.714;23.274;2023-05-10T03:52:42;8.57;;;7.50;;
21010;SDS011;10663;42.714;23.274;2023-05-10T03:54:13;7.90;;;6.90;;
21010;SDS011;10663;42.714;23.274;2023-05-10T03:55:45;8.90;;;7.38;;
21010;SDS011;10663;42.714;23.274;2023-05-10T03:57:16;9.60;;;7.32;;
21010;SDS011;10663;42.714;23.274;2023-05-10T03:58:47;8.50;;;7.53;;
21010;SDS011;10663;42.714;23.274;2023-05-10T04:00:18;8.87;;;7.20;;
21010;SDS011;10663;42.714;23.274;2023-05-10T04:01:52;10.07;;;7.97;;
21010;SDS011;10663;42.714;23.274;2023-05-10T04:03:23;10.38;;;8.68;;
21010;SDS011;10663;42.714;23.274;2023-05-10T04:04:56;10.20;;;8.10;;
21010;SDS011;10663;42.714;23.274;2023-05-10T04:06:27;9.98;;;8.20;;
21010;SDS011;10663;42.714;23.274;2023-05-10T04:07:58;10.98;;;8.45;;
21010;SDS011;10663;42.714;23.274;2023-05-10T04:09:29;10.80;;;8.43;;
21010;SDS011;10663;42.714;23.274;2023-05-10T04:11:07;10.00;;;7.90;;
21010;SDS011;10663;42.714;23.274;2023-05-10T04:12:42;11.25;;;8.52;;
21010;SDS011;10663;42.714;23.274;2023-05-10T04:14:12;8.52;;;7.53;;
21010;SDS011;10663;42.714;23.274;2023-05-10T04:15:43;9.20;;;7.70;;
21010;SDS011;10663;42.714;23.274;2023-05-10T04:17:15;9.88;;;7.88;;
21010;SDS011;10663;42.714;23.274;2023-05-10T04:18:45;9.73;;;7.30;;
21010;SDS011;10663;42.714;23.274;2023-05-10T04:20:16;11.45;;;7.75;;
21010;SDS011;10663;42.714;23.274;2023-05-10T04:21:47;8.48;;;7.50;;
21010;SDS011;10663;42.714;23.274;2023-05-10T04:23:18;9.77;;;7.73;;
21010;SDS011;10663;42.714;23.274;2023-05-10T04:24:49;11.47;;;9.07;;
21010;SDS011;10663;42.714;23.274;2023-05-10T04:26:19;14.45;;;10.35;;
21010;SDS011;10663;42.714;23.274;2023-05-10T04:27:51;12.45;;;10.02;;
21010;SDS011;10663;42.714;23.274;2023-05-10T04:29:22;23.50;;;16.05;;
21010;SDS011;10663;42.714;23.274;2023-05-10T04:30:53;26.27;;;16.95;;
21010;SDS011;10663;42.714;23.274;2023-05-10T04:32:24;12.98;;;9.90;;
21010;SDS011;10663;42.714;23.274;2023-05-10T04:33:55;15.27;;;11.02;;
21010;SDS011;10663;42.714;23.274;2023-05-10T04:35:25;17.10;;;14.13;;
21010;SDS011;10663;42.714;23.274;2023-05-10T04:36:57;19.02;;;12.32;;
21010;SDS011;10663;42.714;23.274;2023-05-10T04:38:28;13.85;;;10.27;;
21010;SDS011;10663;42.714;23.274;2023-05-10T04:39:59;13.43;;;10.00;;
21010;SDS011;10663;42.714;23.274;2023-05-10T04:41:30;16.23;;;11.63;;
21010;SDS011;10663;42.714;23.274;2023-05-10T04:43:01;21.90;;;12.10;;
21010;SDS011;10663;42.714;23.274;2023-05-10T04:44:32;10.82;;;8.00;;
21010;SDS011;10663;42.714;23.274;2023-05-10T04:46:04;10.10;;;7.43;;
21010;SDS011;10663;42.714;23.274;2023-05-10T04:47:35;9.43;;;7.57;;
21010;SDS011;10663;42.714;23.274;2023-05-10T04:49:07;9.35;;;7.97;;
21010;SDS011;10663;42.714;23.274;2023-05-10T04:50:38;10.88;;;7.80;;
21010;SDS011;10663;42.714;23.274;2023-05-10T04:52:10;9.35;;;7.60;;
21010;SDS011;10663;42.714;23.274;2023-05-10T04:53:41;8.20;;;7.03;;
21010;SDS011;10663;42.714;23.274;2023-05-10T04:55:12;8.98;;;7.32;;
21010;SDS011;10663;42.714;23.274;2023-05-10T04:56:43;8.70;;;7.13;;
21010;SDS011;10663;42.714;23.274;2023-05-10T04:58:14;8.60;;;7.40;;
21010;SDS011;10663;42.714;23.274;2023-05-10T04:59:45;9.20;;;7.85;;
21010;SDS011;10663;42.714;23.274;2023-05-10T05:01:16;9.20;;;7.60;;
21010;SDS011;10663;42.714;23.274;2023-05-10T05:02:47;11.05;;;7.35;;
21010;SDS011;10663;42.714;23.274;2023-05-10T05:04:18;9.45;;;7.10;;
21010;SDS011;10663;42.714;23.274;2023-05-10T05:05:49;8.83;;;7.47;;
21010;SDS011;10663;42.714;23.274;2023-05-10T05:07:20;9.32;;;7.30;;
21010;SDS011;10663;42.714;23.274;2023-05-10T05:08:50;10.73;;;7.50;;
21010;SDS011;10663;42.714;23.274;2023-05-10T05:10:21;9.75;;;7.30;;
21010;SDS011;10663;42.714;23.274;2023-05-10T05:11:52;9.73;;;7.63;;
21010;SDS011;10663;42.714;23.274;2023-05-10T05:13:23;9.00;;;7.50;;
21010;SDS011;10663;42.714;23.274;2023-05-10T05:14:54;9.38;;;7.82;;
21010;SDS011;10663;42.714;23.274;2023-05-10T05:16:25;9.52;;;8.20;;
21010;SDS011;10663;42.714;23.274;2023-05-10T05:17:57;10.45;;;7.70;;
21010;SDS011;10663;42.714;23.274;2023-05-10T05:19:28;10.00;;;8.25;;
21010;SDS011;10663;42.714;23.274;2023-05-10T05:21:01;9.88;;;7.75;;
21010;SDS011;10663;42.714;23.274;2023-05-10T05:22:32;8.60;;;7.70;;
21010;SDS011;10663;42.714;23.274;2023-05-10T05:24:03;8.97;;;7.77;;
21010;SDS011;10663;42.714;23.274;2023-05-10T05:25:35;10.77;;;7.85;;
21010;SDS011;10663;42.714;23.274;2023-05-10T05:27:06;10.30;;;8.48;;
21010;SDS011;10663;42.714;23.274;2023-05-10T05:28:37;13.57;;;9.00;;
21010;SDS011;10663;42.714;23.274;2023-05-10T05:30:08;12.07;;;8.27;;
21010;SDS011;10663;42.714;23.274;2023-05-10T05:31:40;10.57;;;7.63;;
21010;SDS011;10663;42.714;23.274;2023-05-10T05:33:10;9.50;;;8.13;;
21010;SDS011;10663;42.714;23.274;2023-05-10T05:34:43;11.23;;;8.48;;
21010;SDS011;10663;42.714;23.274;2023-05-10T05:36:14;10.23;;;8.48;;
21010;SDS011;10663;42.714;23.274;2023-05-10T05:37:45;10.07;;;8.45;;
21010;SDS011;10663;42.714;23.274;2023-05-10T05:39:16;9.25;;;8.30;;
21010;SDS011;10663;42.714;23.274;2023-05-10T05:40:48;9.05;;;8.15;;
21010;SDS011;10663;42.714;23.274;2023-05-10T05:42:19;10.85;;;8.55;;
21010;SDS011;10663;42.714;23.274;2023-05-10T05:43:50;10.70;;;9.07;;
21010;SDS011;10663;42.714;23.274;2023-05-10T05:45:21;10.37;;;9.10;;
21010;SDS011;10663;42.714;23.274;2023-05-10T05:46:51;11.10;;;8.90;;
21010;SDS011;10663;42.714;23.274;2023-05-10T05:48:23;10.32;;;8.73;;
21010;SDS011;10663;42.714;23.274;2023-05-10T05:49:54;10.93;;;8.68;;
21010;SDS011;10663;42.714;23.274;2023-05-10T05:51:25;14.93;;;8.83;;
21010;SDS011;10663;42.714;23.274;2023-05-10T05:52:56;11.10;;;8.97;;
21010;SDS011;10663;42.714;23.274;2023-05-10T05:54:27;10.00;;;8.60;;
21010;SDS011;10663;42.714;23.274;2023-05-10T05:55:58;10.90;;;8.35;;
21010;SDS011;10663;42.714;23.274;2023-05-10T05:57:29;9.50;;;8.50;;
21010;SDS011;10663;42.714;23.274;2023-05-10T05:59:00;10.80;;;8.88;;
21010;SDS011;10663;42.714;23.274;2023-05-10T06:00:31;10.98;;;8.43;;
21010;SDS011;10663;42.714;23.274;2023-05-10T06:02:02;11.32;;;8.38;;
21010;SDS011;10663;42.714;23.274;2023-05-10T06:03:33;9.57;;;8.57;;
21010;SDS011;10663;42.714;23.274;2023-05-10T06:05:04;10.50;;;8.55;;
21010;SDS011;10663;42.714;23.274;2023-05-10T06:06:35;12.27;;;8.93;;
21010;SDS011;10663;42.714;23.274;2023-05-10T06:08:06;11.73;;;8.77;;
21010;SDS011;10663;42.714;23.274;2023-05-10T06:09:37;11.90;;;9.38;;
21010;SDS011;10663;42.714;23.274;2023-05-10T06:11:08;12.50;;;9.82;;
21010;SDS011;10663;42.714;23.274;2023-05-10T06:12:39;10.45;;;9.25;;
21010;SDS011;10663;42.714;23.274;2023-05-10T06:14:10;11.43;;;8.50;;
21010;SDS011;10663;42.714;23.274;2023-05-10T06:15:40;10.55;;;9.18;;
21010;SDS011;10663;42.714;23.274;2023-05-10T06:17:11;11.25;;;9.40;;
21010;SDS011;10663;42.714;23.274;2023-05-10T06:18:42;10.35;;;8.93;;
21010;SDS011;10663;42.714;23.274;2023-05-10T06:20:15;10.57;;;8.85;;
21010;SDS011;10663;42.714;23.274;2023-05-10T06:21:46;11.43;;;9.18;;
21010;SDS011;10663;42.714;23.274;2023-05-10T06:23:17;12.63;;;9.98;;
21010;SDS011;10663;42.714;23.274;2023-05-10T06:24:48;12.85;;;9.48;;
21010;SDS011;10663;42.714;23.274;2023-05-10T06:26:19;11.10;;;8.88;;
21010;SDS011;10663;42.714;23.274;2023-05-10T06:27:51;10.48;;;9.02;;
21010;SDS011;10663;42.714;23.274;2023-05-10T06:29:28;13.05;;;9.13;;
21010;SDS011;10663;42.714;23.274;2023-05-10T06:30:59;10.88;;;9.15;;
21010;SDS011;10663;42.714;23.274;2023-05-10T06:32:30;10.38;;;8.48;;
21010;SDS011;10663;42.714;23.274;2023-05-10T06:34:01;10.88;;;8.52;;
21010;SDS011;10663;42.714;23.274;2023-05-10T06:35:33;10.38;;;8.63;;
21010;SDS011;10663;42.714;23.274;2023-05-10T06:37:05;11.52;;;8.20;;
21010;SDS011;10663;42.714;23.274;2023-05-10T06:38:36;10.40;;;8.27;;
21010;SDS011;10663;42.714;23.274;2023-05-10T06:40:07;9.52;;;8.00;;
21010;SDS011;10663;42.714;23.274;2023-05-10T06:41:39;11.38;;;8.63;;
21010;SDS011;10663;42.714;23.274;2023-05-10T06:43:10;10.95;;;7.88;;
21010;SDS011;10663;42.714;23.274;2023-05-10T06:44:41;10.63;;;7.83;;
21010;SDS011;10663;42.714;23.274;2023-05-10T06:46:12;8.97;;;7.87;;
21010;SDS011;10663;42.714;23.274;2023-05-10T06:47:43;10.50;;;8.25;;
21010;SDS011;10663;42.714;23.274;2023-05-10T06:49:14;9.23;;;7.82;;
21010;SDS011;10663;42.714;23.274;2023-05-10T06:50:45;10.02;;;7.85;;
21010;SDS011;10663;42.714;23.274;2023-05-10T06:52:16;9.50;;;7.82;;
21010;SDS011;10663;42.714;23.274;2023-05-10T06:53:46;9.43;;;7.47;;
21010;SDS011;10663;42.714;23.274;2023-05-10T06:55:17;9.23;;;7.50;;
21010;SDS011;10663;42.714;23.274;2023-05-10T06:56:48;8.32;;;7.43;;
21010;SDS011;10663;42.714;23.274;2023-05-10T06:58:19;9.55;;;8.25;;
21010;SDS011;10663;42.714;23.274;2023-05-10T06:59:51;10.30;;;7.78;;
21010;SDS011;10663;42.714;23.274;2023-05-10T07:01:22;8.77;;;7.38;;
21010;SDS011;10663;42.714;23.274;2023-05-10T07:02:53;8.77;;;7.37;;
21010;SDS011;10663;42.714;23.274;2023-05-10T07:04:24;8.83;;;7.50;;
21010;SDS011;10663;42.714;23.274;2023-05-10T07:05:59;11.38;;;7.10;;
21010;SDS011;10663;42.714;23.274;2023-05-10T07:07:34;10.80;;;7.33;;
21010;SDS011;10663;42.714;23.274;2023-05-10T07:09:05;11.32;;;8.45;;
21010;SDS011;10663;42.714;23.274;2023-05-10T07:10:36;8.25;;;7.40;;
21010;SDS011;10663;42.714;23.274;2023-05-10T07:12:07;9.63;;;7.47;;
21010;SDS011;10663;42.714;23.274;2023-05-10T07:13:37;8.67;;;7.10;;
21010;SDS011;10663;42.714;23.274;2023-05-10T07:15:11;9.43;;;7.25;;
21010;SDS011;10663;42.714;23.274;2023-05-10T07:16:42;9.32;;;7.40;;
21010;SDS011;10663;42.714;23.274;2023-05-10T07:18:14;7.78;;;6.95;;
21010;SDS011;10663;42.714;23.274;2023-05-10T07:19:45;10.07;;;7.82;;
21010;SDS011;10663;42.714;23.274;2023-05-10T07:21:16;10.05;;;7.25;;
21010;SDS011;10663;42.714;23.274;2023-05-10T07:22:47;9.40;;;7.32;;
21010;SDS011;10663;42.714;23.274;2023-05-10T07:24:18;9.63;;;7.80;;
21010;SDS011;10663;42.714;23.274;2023-05-10T07:25:49;9.02;;;7.60;;
21010;SDS011;10663;42.714;23.274;2023-05-10T07:27:22;10.35;;;7.50;;
21010;SDS011;10663;42.714;23.274;2023-05-10T07:28:53;7.88;;;6.90;;
21010;SDS011;10663;42.714;23.274;2023-05-10T07:30:24;10.55;;;7.32;;
21010;SDS011;10663;42.714;23.274;2023-05-10T07:31:55;9.82;;;7.60;;
21010;SDS011;10663;42.714;23.274;2023-05-10T07:33:26;8.40;;;7.38;;
21010;SDS011;10663;42.714;23.274;2023-05-10T07:34:57;9.30;;;7.57;;
21010;SDS011;10663;42.714;23.274;2023-05-10T07:36:27;9.40;;;8.02;;
21010;SDS011;10663;42.714;23.274;2023-05-10T07:38:02;8.48;;;7.57;;
21010;SDS011;10663;42.714;23.274;2023-05-10T07:39:33;10.60;;;7.97;;
21010;SDS011;10663;42.714;23.274;2023-05-10T07:41:03;9.60;;;7.22;;
21010;SDS011;10663;42.714;23.274;2023-05-10T07:42:34;10.37;;;7.07;;
21010;SDS011;10663;42.714;23.274;2023-05-10T07:44:05;9.15;;;7.25;;
21010;SDS011;10663;42.714;23.274;2023-05-10T07:45:36;9.07;;;7.75;;
21010;SDS011;10663;42.714;23.274;2023-05-10T07:47:10;8.67;;;7.50;;
21010;SDS011;10663;42.714;23.274;2023-05-10T07:48:42;8.70;;;7.80;;
21010;SDS011;10663;42.714;23.274;2023-05-10T07:50:13;10.63;;;7.75;;
21010;SDS011;10663;42.714;23.274;2023-05-10T07:51:44;9.95;;;7.68;;
21010;SDS011;10663;42.714;23.274;2023-05-10T07:53:15;9.45;;;8.07;;
21010;SDS011;10663;42.714;23.274;2023-05-10T07:54:48;8.60;;;7.70;;
21010;SDS011;10663;42.714;23.274;2023-05-10T07:56:23;8.30;;;7.50;;
21010;SDS011;10663;42.714;23.274;2023-05-10T07:57:59;9.10;;;8.18;;
21010;SDS011;10663;42.714;23.274;2023-05-10T07:59:31;11.30;;;8.63;;
21010;SDS011;10663;42.714;23.274;2023-05-10T08:01:03;9.55;;;8.15;;
21010;SDS011;10663;42.714;23.274;2023-05-10T08:02:35;11.13;;;8.57;;
21010;SDS011;10663;42.714;23.274;2023-05-10T08:04:06;10.07;;;8.68;;
21010;SDS011;10663;42.714;23.274;2023-05-10T08:05:37;10.23;;;7.88;;
21010;SDS011;10663;42.714;23.274;2023-05-10T08:07:08;9.80;;;7.97;;
21010;SDS011;10663;42.714;23.274;2023-05-10T08:08:39;9.27;;;8.30;;
21010;SDS011;10663;42.714;23.274;2023-05-10T08:10:10;10.90;;;8.93;;
21010;SDS011;10663;42.714;23.274;2023-05-10T08:11:41;9.32;;;8.15;;
21010;SDS011;10663;42.714;23.274;2023-05-10T08:13:12;12.43;;;8.82;;
21010;SDS011;10663;42.714;23.274;2023-05-10T08:14:43;10.35;;;8.23;;
21010;SDS011;10663;42.714;23.274;2023-05-10T08:16:14;9.88;;;8.25;;
21010;SDS011;10663;42.714;23.274;2023-05-10T08:17:45;9.13;;;8.23;;
21010;SDS011;10663;42.714;23.274;2023-05-10T08:19:16;10.07;;;8.65;;
21010;SDS011;10663;42.714;23.274;2023-05-10T08:20:49;8.50;;;7.70;;
21010;SDS011;10663;42.714;23.274;2023-05-10T08:22:20;10.63;;;8.77;;
21010;SDS011;10663;42.714;23.274;2023-05-10T08:23:51;10.57;;;9.10;;
21010;SDS011;10663;42.714;23.274;2023-05-10T08:25:22;11.60;;;8.63;;
21010;SDS011;10663;42.714;23.274;2023-05-10T08:26:56;11.88;;;8.52;;
21010;SDS011;10663;42.714;23.274;2023-05-10T08:28:27;9.93;;;8.55;;
21010;SDS011;10663;42.714;23.274;2023-05-10T08:29:58;8.55;;;7.53;;
21010;SDS011;10663;42.714;23.274;2023-05-10T08:31:29;8.70;;;7.75;;
21010;SDS011;10663;42.714;23.274;2023-05-10T08:33:00;8.80;;;7.80;;
21010;SDS011;10663;42.714;23.274;2023-05-10T08:34:31;8.73;;;7.32;;
21010;SDS011;10663;42.714;23.274;2023-05-10T08:36:02;8.13;;;7.35;;
21010;SDS011;10663;42.714;23.274;2023-05-10T08:37:32;9.95;;;7.88;;
21010;SDS011;10663;42.714;23.274;2023-05-10T08:39:03;8.63;;;7.82;;
21010;SDS011;10663;42.714;23.274;2023-05-10T08:40:34;8.70;;;7.90;;
21010;SDS011;10663;42.714;23.274;2023-05-10T08:42:07;8.20;;;7.40;;
21010;SDS011;10663;42.714;23.274;2023-05-10T08:43:39;8.68;;;7.72;;
21010;SDS011;10663;42.714;23.274;2023-05-10T08:45:11;7.45;;;6.75;;
21010;SDS011;10663;42.714;23.274;2023-05-10T08:46:44;7.68;;;6.75;;
21010;SDS011;10663;42.714;23.274;2023-05-10T08:48:17;8.48;;;7.30;;
21010;SDS011;10663;42.714;23.274;2023-05-10T08:49:48;8.20;;;7.40;;
21010;SDS011;10663;42.714;23.274;2023-05-10T08:51:24;8.30;;;7.50;;
21010;SDS011;10663;42.714;23.274;2023-05-10T08:53:00;10.90;;;7.13;;
21010;SDS011;10663;42.714;23.274;2023-05-10T08:54:35;7.80;;;7.00;;
21010;SDS011;10663;42.714;23.274;2023-05-10T08:56:07;9.00;;;7.55;;
21010;SDS011;10663;42.714;23.274;2023-05-10T08:57:37;8.70;;;7.00;;
21010;SDS011;10663;42.714;23.274;2023-05-10T08:59:08;8.63;;;7.73;;
21010;SDS011;10663;42.714;23.274;2023-05-10T09:00:39;8.10;;;7.30;;
21010;SDS011;10663;42.714;23.274;2023-05-10T09:02:11;9.52;;;8.02;;
21010;SDS011;10663;42.714;23.274;2023-05-10T09:03:43;8.57;;;7.65;;
21010;SDS011;10663;42.714;23.274;2023-05-10T09:05:17;9.63;;;7.90;;
21010;SDS011;10663;42.714;23.274;2023-05-10T09:06:48;8.15;;;7.07;;
21010;SDS011;10663;42.714;23.274;2023-05-10T09:08:19;7.82;;;7.03;;
21010;SDS011;10663;42.714;23.274;2023-05-10T09:09:50;9.30;;;7.00;;
21010;SDS011;10663;42.714;23.274;2023-05-10T09:11:22;8.85;;;7.00;;
21010;SDS011;10663;42.714;23.274;2023-05-10T09:12:56;9.63;;;7.40;;
21010;SDS011;10663;42.714;23.274;2023-05-10T09:14:28;8.32;;;7.40;;
21010;SDS011;10663;42.714;23.274;2023-05-10T09:15:59;8.50;;;7.60;;
21010;SDS011;10663;42.714;23.274;2023-05-10T09:17:31;8.07;;;7.13;;
21010;SDS011;10663;42.714;23.274;2023-05-10T09:19:02;8.20;;;7.40;;
21010;SDS011;10663;42.714;23.274;2023-05-10T09:20:33;8.82;;;7.68;;